sensor_id;sensor_type;location;lat;lon;timestamp;P1;durP1;ratioP1;P2;durP2;ratioP2
63693;SDS011;49839;51.798;10.954;2023-05-29T00:02:15;12.95;;;3.15;;
63693;SDS011;49839;51.798;10.954;2023-05-29T00:04:43;10.05;;;3.30;;
63693;SDS011;49839;51.798;10.954;2023-05-29T00:07:10;12.50;;;3.13;;
63693;SDS011;49839;51.798;10.954;2023-05-29T00:09:38;10.05;;;4.10;;
63693;SDS011;49839;51.798;10.954;2023-05-29T00:12:06;8.55;;;3.17;;
63693;SDS011;49839;51.798;10.954;2023-05-29T00:14:33;9.45;;;3.08;;
63693;SDS011;49839;51.798;10.954;2023-05-29T00:17:03;9.90;;;3.30;;
63693;SDS011;49839;51.798;10.954;2023-05-29T00:19:30;7.57;;;3.60;;
63693;SDS011;49839;51.798;10.954;2023-05-29T00:21:58;7.70;;;2.97;;
63693;SDS011;49839;51.798;10.954;2023-05-29T00:24:26;9.57;;;3.65;;
63693;SDS011;49839;51.798;10.954;2023-05-29T00:26:53;9.20;;;3.30;;
63693;SDS011;49839;51.798;10.954;2023-05-29T00:29:21;8.75;;;3.28;;
63693;SDS011;49839;51.798;10.954;2023-05-29T00:31:48;7.95;;;3.42;;
63693;SDS011;49839;51.798;10.954;2023-05-29T00:34:21;9.88;;;3.47;;
63693;SDS011;49839;51.798;10.954;2023-05-29T00:36:49;10.32;;;3.60;;
63693;SDS011;49839;51.798;10.954;2023-05-29T00:39:17;12.30;;;3.50;;
63693;SDS011;49839;51.798;10.954;2023-05-29T00:41:45;9.15;;;3.20;;
63693;SDS011;49839;51.798;10.954;2023-05-29T00:44:17;9.73;;;3.13;;
63693;SDS011;49839;51.798;10.954;2023-05-29T00:46:45;8.63;;;3.08;;
63693;SDS011;49839;51.798;10.954;2023-05-29T00:49:12;10.05;;;3.45;;
63693;SDS011;49839;51.798;10.954;2023-05-29T00:51:42;9.98;;;3.45;;
63693;SDS011;49839;51.798;10.954;2023-05-29T00:54:11;8.05;;;2.80;;
63693;SDS011;49839;51.798;10.954;2023-05-29T00:56:40;8.23;;;3.17;;
63693;SDS011;49839;51.798;10.954;2023-05-29T00:59:09;7.30;;;2.88;;
63693;SDS011;49839;51.798;10.954;2023-05-29T01:04:28;8.45;;;3.10;;
63693;SDS011;49839;51.798;10.954;2023-05-29T01:07:01;7.93;;;3.47;;
63693;SDS011;49839;51.798;10.954;2023-05-29T01:09:30;6.47;;;3.08;;
63693;SDS011;49839;51.798;10.954;2023-05-29T01:11:59;12.20;;;3.53;;
63693;SDS011;49839;51.798;10.954;2023-05-29T01:14:36;11.75;;;2.90;;
63693;SDS011;49839;51.798;10.954;2023-05-29T01:17:15;9.00;;;3.30;;
63693;SDS011;49839;51.798;10.954;2023-05-29T01:19:55;11.63;;;3.13;;
63693;SDS011;49839;51.798;10.954;2023-05-29T01:22:40;9.30;;;3.22;;
63693;SDS011;49839;51.798;10.954;2023-05-29T01:25:19;9.18;;;3.38;;
63693;SDS011;49839;51.798;10.954;2023-05-29T01:27:52;9.70;;;2.80;;
63693;SDS011;49839;51.798;10.954;2023-05-29T01:30:22;7.93;;;3.00;;
63693;SDS011;49839;51.798;10.954;2023-05-29T01:32:51;6.50;;;2.88;;
63693;SDS011;49839;51.798;10.954;2023-05-29T01:35:19;9.00;;;3.40;;
63693;SDS011;49839;51.798;10.954;2023-05-29T01:37:46;9.52;;;3.22;;
63693;SDS011;49839;51.798;10.954;2023-05-29T01:40:14;9.65;;;3.30;;
63693;SDS011;49839;51.798;10.954;2023-05-29T01:42:42;8.50;;;3.47;;
63693;SDS011;49839;51.798;10.954;2023-05-29T01:45:11;11.82;;;3.92;;
63693;SDS011;49839;51.798;10.954;2023-05-29T01:47:39;10.40;;;3.28;;
63693;SDS011;49839;51.798;10.954;2023-05-29T01:50:08;7.90;;;3.30;;
63693;SDS011;49839;51.798;10.954;2023-05-29T01:52:37;10.75;;;3.47;;
63693;SDS011;49839;51.798;10.954;2023-05-29T01:55:05;9.68;;;3.30;;
63693;SDS011;49839;51.798;10.954;2023-05-29T01:57:32;9.80;;;3.20;;
63693;SDS011;49839;51.798;10.954;2023-05-29T02:00:01;9.82;;;3.53;;
63693;SDS011;49839;51.798;10.954;2023-05-29T02:02:37;11.98;;;3.50;;
63693;SDS011;49839;51.798;10.954;2023-05-29T02:05:05;8.85;;;3.13;;
63693;SDS011;49839;51.798;10.954;2023-05-29T02:07:34;8.75;;;3.13;;
63693;SDS011;49839;51.798;10.954;2023-05-29T02:10:03;8.10;;;3.35;;
63693;SDS011;49839;51.798;10.954;2023-05-29T02:12:31;8.40;;;3.70;;
63693;SDS011;49839;51.798;10.954;2023-05-29T02:14:59;9.65;;;3.47;;
63693;SDS011;49839;51.798;10.954;2023-05-29T02:17:26;9.00;;;3.33;;
63693;SDS011;49839;51.798;10.954;2023-05-29T02:19:55;9.23;;;3.65;;
63693;SDS011;49839;51.798;10.954;2023-05-29T02:22:23;9.83;;;3.37;;
63693;SDS011;49839;51.798;10.954;2023-05-29T02:24:51;10.45;;;4.13;;
63693;SDS011;49839;51.798;10.954;2023-05-29T02:27:18;9.35;;;3.30;;
63693;SDS011;49839;51.798;10.954;2023-05-29T02:29:46;7.97;;;3.40;;
63693;SDS011;49839;51.798;10.954;2023-05-29T02:32:14;9.32;;;3.90;;
63693;SDS011;49839;51.798;10.954;2023-05-29T02:34:41;9.85;;;3.88;;
63693;SDS011;49839;51.798;10.954;2023-05-29T02:37:10;9.70;;;3.70;;
63693;SDS011;49839;51.798;10.954;2023-05-29T02:39:38;8.70;;;3.60;;
63693;SDS011;49839;51.798;10.954;2023-05-29T02:42:06;8.85;;;3.10;;
63693;SDS011;49839;51.798;10.954;2023-05-29T02:44:34;11.38;;;3.75;;
63693;SDS011;49839;51.798;10.954;2023-05-29T02:47:01;8.02;;;3.28;;
63693;SDS011;49839;51.798;10.954;2023-05-29T02:49:29;12.18;;;3.63;;
63693;SDS011;49839;51.798;10.954;2023-05-29T02:51:56;9.00;;;3.17;;
63693;SDS011;49839;51.798;10.954;2023-05-29T02:54:25;9.75;;;3.80;;
63693;SDS011;49839;51.798;10.954;2023-05-29T02:56:53;9.48;;;3.47;;
63693;SDS011;49839;51.798;10.954;2023-05-29T02:59:21;8.55;;;3.38;;
63693;SDS011;49839;51.798;10.954;2023-05-29T03:01:48;9.43;;;3.60;;
63693;SDS011;49839;51.798;10.954;2023-05-29T03:04:18;10.60;;;3.28;;
63693;SDS011;49839;51.798;10.954;2023-05-29T03:06:45;9.07;;;3.45;;
63693;SDS011;49839;51.798;10.954;2023-05-29T03:09:13;9.02;;;3.30;;
63693;SDS011;49839;51.798;10.954;2023-05-29T03:11:43;12.40;;;3.80;;
63693;SDS011;49839;51.798;10.954;2023-05-29T03:14:11;9.07;;;3.28;;
63693;SDS011;49839;51.798;10.954;2023-05-29T03:16:39;11.30;;;3.42;;
63693;SDS011;49839;51.798;10.954;2023-05-29T03:19:07;6.32;;;2.95;;
63693;SDS011;49839;51.798;10.954;2023-05-29T03:21:34;8.68;;;3.38;;
63693;SDS011;49839;51.798;10.954;2023-05-29T03:24:03;8.75;;;3.42;;
63693;SDS011;49839;51.798;10.954;2023-05-29T03:26:31;8.23;;;2.83;;
63693;SDS011;49839;51.798;10.954;2023-05-29T03:29:00;7.10;;;2.88;;
63693;SDS011;49839;51.798;10.954;2023-05-29T03:31:28;9.30;;;3.70;;
63693;SDS011;49839;51.798;10.954;2023-05-29T03:33:56;6.97;;;2.85;;
63693;SDS011;49839;51.798;10.954;2023-05-29T03:36:23;9.07;;;3.53;;
63693;SDS011;49839;51.798;10.954;2023-05-29T03:38:51;9.40;;;3.30;;
63693;SDS011;49839;51.798;10.954;2023-05-29T03:41:18;8.85;;;3.10;;
63693;SDS011;49839;51.798;10.954;2023-05-29T03:43:46;6.90;;;3.20;;
63693;SDS011;49839;51.798;10.954;2023-05-29T03:46:15;8.27;;;3.15;;
63693;SDS011;49839;51.798;10.954;2023-05-29T03:48:43;9.30;;;3.15;;
63693;SDS011;49839;51.798;10.954;2023-05-29T03:51:10;7.78;;;3.00;;
63693;SDS011;49839;51.798;10.954;2023-05-29T03:53:38;8.52;;;3.05;;
63693;SDS011;49839;51.798;10.954;2023-05-29T03:56:06;9.75;;;3.15;;
63693;SDS011;49839;51.798;10.954;2023-05-29T03:58:33;5.38;;;2.80;;
63693;SDS011;49839;51.798;10.954;2023-05-29T04:01:02;10.15;;;3.35;;
63693;SDS011;49839;51.798;10.954;2023-05-29T04:03:32;6.75;;;2.58;;
63693;SDS011;49839;51.798;10.954;2023-05-29T04:05:59;8.60;;;2.88;;
63693;SDS011;49839;51.798;10.954;2023-05-29T04:08:27;7.20;;;3.10;;
63693;SDS011;49839;51.798;10.954;2023-05-29T04:10:55;9.52;;;3.13;;
63693;SDS011;49839;51.798;10.954;2023-05-29T04:13:22;9.98;;;3.25;;
63693;SDS011;49839;51.798;10.954;2023-05-29T04:15:50;6.22;;;2.42;;
63693;SDS011;49839;51.798;10.954;2023-05-29T04:18:19;7.25;;;2.70;;
63693;SDS011;49839;51.798;10.954;2023-05-29T04:20:48;9.45;;;2.92;;
63693;SDS011;49839;51.798;10.954;2023-05-29T04:25:44;6.60;;;2.63;;
63693;SDS011;49839;51.798;10.954;2023-05-29T04:28:11;6.35;;;2.60;;
63693;SDS011;49839;51.798;10.954;2023-05-29T04:30:39;8.50;;;2.67;;
63693;SDS011;49839;51.798;10.954;2023-05-29T04:33:08;9.55;;;3.05;;
63693;SDS011;49839;51.798;10.954;2023-05-29T04:35:38;9.63;;;2.95;;
63693;SDS011;49839;51.798;10.954;2023-05-29T04:38:10;8.10;;;2.90;;
63693;SDS011;49839;51.798;10.954;2023-05-29T04:40:38;6.80;;;3.00;;
63693;SDS011;49839;51.798;10.954;2023-05-29T04:43:06;8.95;;;3.00;;
63693;SDS011;49839;51.798;10.954;2023-05-29T04:45:34;5.97;;;2.88;;
63693;SDS011;49839;51.798;10.954;2023-05-29T04:48:03;4.90;;;2.40;;
63693;SDS011;49839;51.798;10.954;2023-05-29T04:50:31;7.82;;;2.90;;
63693;SDS011;49839;51.798;10.954;2023-05-29T04:52:59;8.75;;;2.92;;
63693;SDS011;49839;51.798;10.954;2023-05-29T04:55:28;9.43;;;2.88;;
63693;SDS011;49839;51.798;10.954;2023-05-29T04:57:56;7.05;;;3.00;;
63693;SDS011;49839;51.798;10.954;2023-05-29T05:00:24;6.53;;;2.80;;
63693;SDS011;49839;51.798;10.954;2023-05-29T05:02:53;7.80;;;3.07;;
63693;SDS011;49839;51.798;10.954;2023-05-29T05:05:21;7.35;;;2.60;;
63693;SDS011;49839;51.798;10.954;2023-05-29T05:07:49;5.78;;;2.75;;
63693;SDS011;49839;51.798;10.954;2023-05-29T05:10:16;8.18;;;2.47;;
63693;SDS011;49839;51.798;10.954;2023-05-29T05:12:45;5.72;;;2.30;;
63693;SDS011;49839;51.798;10.954;2023-05-29T05:15:13;8.43;;;2.90;;
63693;SDS011;49839;51.798;10.954;2023-05-29T05:17:41;5.95;;;2.97;;
63693;SDS011;49839;51.798;10.954;2023-05-29T05:20:09;6.90;;;2.40;;
63693;SDS011;49839;51.798;10.954;2023-05-29T05:22:37;6.93;;;2.70;;
63693;SDS011;49839;51.798;10.954;2023-05-29T05:25:05;5.95;;;2.53;;
63693;SDS011;49839;51.798;10.954;2023-05-29T05:27:33;8.40;;;2.75;;
63693;SDS011;49839;51.798;10.954;2023-05-29T05:30:02;6.40;;;2.65;;
63693;SDS011;49839;51.798;10.954;2023-05-29T05:32:30;5.88;;;2.63;;
63693;SDS011;49839;51.798;10.954;2023-05-29T05:34:58;5.20;;;2.47;;
63693;SDS011;49839;51.798;10.954;2023-05-29T05:37:26;6.32;;;2.40;;
63693;SDS011;49839;51.798;10.954;2023-05-29T05:39:53;8.68;;;2.58;;
63693;SDS011;49839;51.798;10.954;2023-05-29T05:42:23;7.35;;;2.67;;
63693;SDS011;49839;51.798;10.954;2023-05-29T05:44:51;5.82;;;2.55;;
63693;SDS011;49839;51.798;10.954;2023-05-29T05:47:20;8.02;;;2.08;;
63693;SDS011;49839;51.798;10.954;2023-05-29T05:49:48;5.18;;;2.53;;
63693;SDS011;49839;51.798;10.954;2023-05-29T05:52:17;6.53;;;2.47;;
63693;SDS011;49839;51.798;10.954;2023-05-29T05:54:45;5.13;;;2.40;;
63693;SDS011;49839;51.798;10.954;2023-05-29T05:57:12;10.52;;;2.95;;
63693;SDS011;49839;51.798;10.954;2023-05-29T05:59:40;4.78;;;2.33;;
63693;SDS011;49839;51.798;10.954;2023-05-29T06:02:08;7.47;;;2.38;;
63693;SDS011;49839;51.798;10.954;2023-05-29T06:04:37;5.22;;;2.50;;
63693;SDS011;49839;51.798;10.954;2023-05-29T06:07:04;6.80;;;2.80;;
63693;SDS011;49839;51.798;10.954;2023-05-29T06:09:32;5.32;;;2.50;;
63693;SDS011;49839;51.798;10.954;2023-05-29T06:12:00;6.15;;;2.58;;
63693;SDS011;49839;51.798;10.954;2023-05-29T06:14:28;5.22;;;2.30;;
63693;SDS011;49839;51.798;10.954;2023-05-29T06:16:55;6.95;;;2.83;;
63693;SDS011;49839;51.798;10.954;2023-05-29T06:19:23;6.55;;;2.50;;
63693;SDS011;49839;51.798;10.954;2023-05-29T06:21:52;6.28;;;2.75;;
63693;SDS011;49839;51.798;10.954;2023-05-29T06:24:20;6.95;;;3.00;;
63693;SDS011;49839;51.798;10.954;2023-05-29T06:26:48;6.72;;;2.72;;
63693;SDS011;49839;51.798;10.954;2023-05-29T06:29:16;7.00;;;2.70;;
63693;SDS011;49839;51.798;10.954;2023-05-29T06:31:44;7.15;;;2.95;;
63693;SDS011;49839;51.798;10.954;2023-05-29T06:34:11;7.32;;;3.40;;
63693;SDS011;49839;51.798;10.954;2023-05-29T06:36:39;6.05;;;2.75;;
63693;SDS011;49839;51.798;10.954;2023-05-29T06:39:09;6.80;;;2.88;;
63693;SDS011;49839;51.798;10.954;2023-05-29T06:44:04;10.25;;;2.33;;
63693;SDS011;49839;51.798;10.954;2023-05-29T06:46:32;7.82;;;2.60;;
63693;SDS011;49839;51.798;10.954;2023-05-29T06:48:59;7.28;;;2.72;;
63693;SDS011;49839;51.798;10.954;2023-05-29T06:51:30;6.45;;;2.40;;
63693;SDS011;49839;51.798;10.954;2023-05-29T06:53:58;6.03;;;3.03;;
63693;SDS011;49839;51.798;10.954;2023-05-29T06:56:27;7.70;;;3.15;;
63693;SDS011;49839;51.798;10.954;2023-05-29T06:58:56;6.80;;;3.03;;
63693;SDS011;49839;51.798;10.954;2023-05-29T07:01:24;6.10;;;2.65;;
63693;SDS011;49839;51.798;10.954;2023-05-29T07:03:51;7.65;;;2.72;;
63693;SDS011;49839;51.798;10.954;2023-05-29T07:06:19;7.13;;;2.92;;
63693;SDS011;49839;51.798;10.954;2023-05-29T07:08:47;5.75;;;2.53;;
63693;SDS011;49839;51.798;10.954;2023-05-29T07:11:15;5.45;;;2.72;;
63693;SDS011;49839;51.798;10.954;2023-05-29T07:13:44;6.82;;;2.78;;
63693;SDS011;49839;51.798;10.954;2023-05-29T07:18:50;6.88;;;2.65;;
63693;SDS011;49839;51.798;10.954;2023-05-29T07:21:17;6.00;;;2.60;;
63693;SDS011;49839;51.798;10.954;2023-05-29T07:23:46;8.95;;;3.03;;
63693;SDS011;49839;51.798;10.954;2023-05-29T07:26:14;8.05;;;2.95;;
63693;SDS011;49839;51.798;10.954;2023-05-29T07:28:43;7.97;;;3.20;;
63693;SDS011;49839;51.798;10.954;2023-05-29T07:31:11;7.15;;;3.17;;
63693;SDS011;49839;51.798;10.954;2023-05-29T07:33:39;5.43;;;2.72;;
63693;SDS011;49839;51.798;10.954;2023-05-29T07:36:07;5.68;;;3.00;;
63693;SDS011;49839;51.798;10.954;2023-05-29T07:38:34;10.45;;;3.33;;
63693;SDS011;49839;51.798;10.954;2023-05-29T07:41:02;6.78;;;3.03;;
63693;SDS011;49839;51.798;10.954;2023-05-29T07:43:30;8.43;;;2.80;;
63693;SDS011;49839;51.798;10.954;2023-05-29T07:45:59;6.82;;;2.85;;
63693;SDS011;49839;51.798;10.954;2023-05-29T07:48:27;6.57;;;2.72;;
63693;SDS011;49839;51.798;10.954;2023-05-29T07:50:54;7.18;;;3.08;;
63693;SDS011;49839;51.798;10.954;2023-05-29T07:53:22;5.38;;;2.72;;
63693;SDS011;49839;51.798;10.954;2023-05-29T07:55:50;8.50;;;3.00;;
63693;SDS011;49839;51.798;10.954;2023-05-29T07:58:17;6.53;;;3.00;;
63693;SDS011;49839;51.798;10.954;2023-05-29T08:00:45;5.93;;;2.70;;
63693;SDS011;49839;51.798;10.954;2023-05-29T08:03:14;6.38;;;2.78;;
63693;SDS011;49839;51.798;10.954;2023-05-29T08:05:42;7.28;;;3.40;;
63693;SDS011;49839;51.798;10.954;2023-05-29T08:08:09;7.82;;;2.95;;
63693;SDS011;49839;51.798;10.954;2023-05-29T08:10:38;8.48;;;2.50;;
63693;SDS011;49839;51.798;10.954;2023-05-29T08:13:06;7.60;;;2.92;;
63693;SDS011;49839;51.798;10.954;2023-05-29T08:15:34;6.10;;;2.60;;
63693;SDS011;49839;51.798;10.954;2023-05-29T08:18:02;7.03;;;2.85;;
63693;SDS011;49839;51.798;10.954;2023-05-29T08:20:31;6.38;;;2.53;;
63693;SDS011;49839;51.798;10.954;2023-05-29T08:23:00;8.30;;;2.67;;
63693;SDS011;49839;51.798;10.954;2023-05-29T08:25:28;8.02;;;2.72;;
63693;SDS011;49839;51.798;10.954;2023-05-29T08:27:55;7.53;;;2.80;;
63693;SDS011;49839;51.798;10.954;2023-05-29T08:30:23;7.72;;;2.72;;
63693;SDS011;49839;51.798;10.954;2023-05-29T08:32:51;8.60;;;2.97;;
63693;SDS011;49839;51.798;10.954;2023-05-29T08:35:18;5.75;;;2.30;;
63693;SDS011;49839;51.798;10.954;2023-05-29T08:37:48;6.82;;;2.47;;
63693;SDS011;49839;51.798;10.954;2023-05-29T08:40:15;9.55;;;3.22;;
63693;SDS011;49839;51.798;10.954;2023-05-29T08:42:45;7.68;;;2.75;;
63693;SDS011;49839;51.798;10.954;2023-05-29T08:45:14;7.32;;;2.70;;
63693;SDS011;49839;51.798;10.954;2023-05-29T08:47:43;7.03;;;2.80;;
63693;SDS011;49839;51.798;10.954;2023-05-29T08:50:12;6.82;;;2.60;;
63693;SDS011;49839;51.798;10.954;2023-05-29T08:52:42;6.93;;;2.13;;
63693;SDS011;49839;51.798;10.954;2023-05-29T08:55:12;7.40;;;2.67;;
63693;SDS011;49839;51.798;10.954;2023-05-29T08:57:40;9.80;;;2.90;;
63693;SDS011;49839;51.798;10.954;2023-05-29T09:00:09;7.00;;;2.50;;
63693;SDS011;49839;51.798;10.954;2023-05-29T09:02:39;8.73;;;2.80;;
63693;SDS011;49839;51.798;10.954;2023-05-29T09:05:07;8.40;;;2.67;;
63693;SDS011;49839;51.798;10.954;2023-05-29T09:10:04;5.25;;;2.20;;
63693;SDS011;49839;51.798;10.954;2023-05-29T09:12:34;5.47;;;1.83;;
63693;SDS011;49839;51.798;10.954;2023-05-29T09:15:03;5.13;;;2.03;;
63693;SDS011;49839;51.798;10.954;2023-05-29T09:17:44;6.38;;;2.38;;
63693;SDS011;49839;51.798;10.954;2023-05-29T09:20:16;6.65;;;2.03;;
63693;SDS011;49839;51.798;10.954;2023-05-29T09:25:19;7.00;;;2.10;;
63693;SDS011;49839;51.798;10.954;2023-05-29T09:27:51;5.47;;;2.10;;
63693;SDS011;49839;51.798;10.954;2023-05-29T09:30:30;7.35;;;2.00;;
63693;SDS011;49839;51.798;10.954;2023-05-29T09:32:59;7.88;;;2.40;;
63693;SDS011;49839;51.798;10.954;2023-05-29T09:37:59;8.75;;;2.20;;
63693;SDS011;49839;51.798;10.954;2023-05-29T09:40:29;6.90;;;2.40;;
63693;SDS011;49839;51.798;10.954;2023-05-29T09:43:02;6.07;;;1.90;;
63693;SDS011;49839;51.798;10.954;2023-05-29T09:45:37;6.55;;;1.60;;
63693;SDS011;49839;51.798;10.954;2023-05-29T09:48:06;6.95;;;2.13;;
63693;SDS011;49839;51.798;10.954;2023-05-29T09:50:35;5.43;;;1.63;;
63693;SDS011;49839;51.798;10.954;2023-05-29T09:53:03;8.35;;;1.95;;
63693;SDS011;49839;51.798;10.954;2023-05-29T09:55:33;4.63;;;1.70;;
63693;SDS011;49839;51.798;10.954;2023-05-29T09:58:03;7.35;;;2.15;;
63693;SDS011;49839;51.798;10.954;2023-05-29T10:00:33;6.50;;;1.80;;
63693;SDS011;49839;51.798;10.954;2023-05-29T10:03:02;7.80;;;2.00;;
63693;SDS011;49839;51.798;10.954;2023-05-29T10:05:30;5.78;;;1.67;;
63693;SDS011;49839;51.798;10.954;2023-05-29T10:07:59;6.15;;;1.60;;
63693;SDS011;49839;51.798;10.954;2023-05-29T10:10:28;6.15;;;1.88;;
63693;SDS011;49839;51.798;10.954;2023-05-29T10:15:27;9.18;;;2.10;;
63693;SDS011;49839;51.798;10.954;2023-05-29T10:17:57;5.53;;;1.90;;
63693;SDS011;49839;51.798;10.954;2023-05-29T10:20:28;6.03;;;2.00;;
63693;SDS011;49839;51.798;10.954;2023-05-29T10:22:58;10.07;;;2.40;;
63693;SDS011;49839;51.798;10.954;2023-05-29T10:25:29;8.48;;;2.28;;
63693;SDS011;49839;51.798;10.954;2023-05-29T10:27:59;10.25;;;2.10;;
63693;SDS011;49839;51.798;10.954;2023-05-29T10:30:30;7.15;;;2.05;;
63693;SDS011;49839;51.798;10.954;2023-05-29T10:33:08;5.83;;;1.90;;
63693;SDS011;49839;51.798;10.954;2023-05-29T10:35:45;6.18;;;2.00;;
63693;SDS011;49839;51.798;10.954;2023-05-29T10:38:15;5.50;;;2.20;;
63693;SDS011;49839;51.798;10.954;2023-05-29T10:40:44;6.05;;;2.15;;
63693;SDS011;49839;51.798;10.954;2023-05-29T10:46:00;5.10;;;2.03;;
63693;SDS011;49839;51.798;10.954;2023-05-29T10:48:41;6.25;;;2.10;;
63693;SDS011;49839;51.798;10.954;2023-05-29T10:53:59;5.07;;;2.17;;
63693;SDS011;49839;51.798;10.954;2023-05-29T10:56:28;6.78;;;2.05;;
63693;SDS011;49839;51.798;10.954;2023-05-29T10:58:58;6.60;;;2.25;;
63693;SDS011;49839;51.798;10.954;2023-05-29T11:01:29;5.18;;;2.13;;
63693;SDS011;49839;51.798;10.954;2023-05-29T11:06:58;5.90;;;1.98;;
63693;SDS011;49839;51.798;10.954;2023-05-29T11:09:27;9.10;;;2.33;;
63693;SDS011;49839;51.798;10.954;2023-05-29T11:15:02;9.27;;;2.20;;
63693;SDS011;49839;51.798;10.954;2023-05-29T11:17:42;6.55;;;2.30;;
63693;SDS011;49839;51.798;10.954;2023-05-29T11:20:24;7.18;;;1.90;;
63693;SDS011;49839;51.798;10.954;2023-05-29T11:23:04;5.97;;;2.08;;
63693;SDS011;49839;51.798;10.954;2023-05-29T11:28:03;5.30;;;1.83;;
63693;SDS011;49839;51.798;10.954;2023-05-29T11:30:41;6.78;;;2.58;;
63693;SDS011;49839;51.798;10.954;2023-05-29T11:33:12;6.15;;;1.95;;
63693;SDS011;49839;51.798;10.954;2023-05-29T11:35:47;10.57;;;2.23;;
63693;SDS011;49839;51.798;10.954;2023-05-29T11:38:22;6.57;;;2.25;;
63693;SDS011;49839;51.798;10.954;2023-05-29T11:40:50;6.68;;;2.40;;
63693;SDS011;49839;51.798;10.954;2023-05-29T11:43:18;6.97;;;2.20;;
63693;SDS011;49839;51.798;10.954;2023-05-29T11:45:46;7.03;;;2.50;;
63693;SDS011;49839;51.798;10.954;2023-05-29T11:48:15;5.28;;;2.13;;
63693;SDS011;49839;51.798;10.954;2023-05-29T11:53:11;9.10;;;2.22;;
63693;SDS011;49839;51.798;10.954;2023-05-29T11:55:39;8.45;;;2.17;;
63693;SDS011;49839;51.798;10.954;2023-05-29T12:00:37;7.63;;;2.25;;
63693;SDS011;49839;51.798;10.954;2023-05-29T12:03:06;4.10;;;1.95;;
63693;SDS011;49839;51.798;10.954;2023-05-29T12:05:45;6.93;;;2.33;;
63693;SDS011;49839;51.798;10.954;2023-05-29T12:08:14;7.28;;;1.83;;
63693;SDS011;49839;51.798;10.954;2023-05-29T12:10:46;6.53;;;2.10;;
63693;SDS011;49839;51.798;10.954;2023-05-29T12:13:19;7.28;;;1.98;;
63693;SDS011;49839;51.798;10.954;2023-05-29T12:15:47;8.15;;;2.30;;
63693;SDS011;49839;51.798;10.954;2023-05-29T12:18:16;11.25;;;2.78;;
63693;SDS011;49839;51.798;10.954;2023-05-29T12:20:46;6.05;;;2.30;;
63693;SDS011;49839;51.798;10.954;2023-05-29T12:25:44;10.13;;;2.55;;
63693;SDS011;49839;51.798;10.954;2023-05-29T12:28:15;8.82;;;2.38;;
63693;SDS011;49839;51.798;10.954;2023-05-29T12:30:46;8.13;;;2.28;;
63693;SDS011;49839;51.798;10.954;2023-05-29T12:33:25;11.52;;;2.65;;
63693;SDS011;49839;51.798;10.954;2023-05-29T12:36:02;8.55;;;2.22;;
63693;SDS011;49839;51.798;10.954;2023-05-29T12:38:31;5.18;;;2.20;;
63693;SDS011;49839;51.798;10.954;2023-05-29T12:40:58;8.05;;;2.08;;
63693;SDS011;49839;51.798;10.954;2023-05-29T12:43:29;7.78;;;2.03;;
63693;SDS011;49839;51.798;10.954;2023-05-29T12:45:57;15.15;;;2.20;;
63693;SDS011;49839;51.798;10.954;2023-05-29T12:48:28;6.63;;;2.10;;
63693;SDS011;49839;51.798;10.954;2023-05-29T12:50:55;8.18;;;2.50;;
63693;SDS011;49839;51.798;10.954;2023-05-29T12:53:29;5.38;;;2.30;;
63693;SDS011;49839;51.798;10.954;2023-05-29T12:55:57;9.50;;;2.40;;
63693;SDS011;49839;51.798;10.954;2023-05-29T12:58:25;6.63;;;2.55;;
63693;SDS011;49839;51.798;10.954;2023-05-29T13:00:56;8.23;;;2.40;;
63693;SDS011;49839;51.798;10.954;2023-05-29T13:03:24;8.40;;;2.47;;
63693;SDS011;49839;51.798;10.954;2023-05-29T13:05:52;8.25;;;2.28;;
63693;SDS011;49839;51.798;10.954;2023-05-29T13:08:20;6.40;;;2.50;;
63693;SDS011;49839;51.798;10.954;2023-05-29T13:10:49;8.35;;;2.40;;
63693;SDS011;49839;51.798;10.954;2023-05-29T13:13:17;9.00;;;2.63;;
63693;SDS011;49839;51.798;10.954;2023-05-29T13:15:46;7.20;;;2.80;;
63693;SDS011;49839;51.798;10.954;2023-05-29T13:18:14;9.73;;;2.95;;
63693;SDS011;49839;51.798;10.954;2023-05-29T13:20:42;5.32;;;2.30;;
63693;SDS011;49839;51.798;10.954;2023-05-29T13:23:12;6.35;;;2.60;;
63693;SDS011;49839;51.798;10.954;2023-05-29T13:25:40;9.43;;;2.72;;
63693;SDS011;49839;51.798;10.954;2023-05-29T13:28:09;7.20;;;2.40;;
63693;SDS011;49839;51.798;10.954;2023-05-29T13:30:36;7.65;;;2.47;;
63693;SDS011;49839;51.798;10.954;2023-05-29T13:33:05;6.88;;;2.40;;
63693;SDS011;49839;51.798;10.954;2023-05-29T13:35:33;7.75;;;2.15;;
63693;SDS011;49839;51.798;10.954;2023-05-29T13:38:01;8.27;;;2.50;;
63693;SDS011;49839;51.798;10.954;2023-05-29T13:40:29;6.03;;;2.03;;
63693;SDS011;49839;51.798;10.954;2023-05-29T13:42:58;13.00;;;2.37;;
63693;SDS011;49839;51.798;10.954;2023-05-29T13:45:27;6.55;;;2.35;;
63693;SDS011;49839;51.798;10.954;2023-05-29T13:47:56;6.85;;;2.40;;
63693;SDS011;49839;51.798;10.954;2023-05-29T13:50:24;7.95;;;2.33;;
63693;SDS011;49839;51.798;10.954;2023-05-29T13:52:53;6.07;;;2.00;;
63693;SDS011;49839;51.798;10.954;2023-05-29T13:55:20;7.78;;;2.60;;
63693;SDS011;49839;51.798;10.954;2023-05-29T13:57:48;6.88;;;2.50;;
63693;SDS011;49839;51.798;10.954;2023-05-29T14:00:16;9.13;;;2.10;;
63693;SDS011;49839;51.798;10.954;2023-05-29T14:02:46;7.53;;;2.42;;
63693;SDS011;49839;51.798;10.954;2023-05-29T14:05:15;7.03;;;2.35;;
63693;SDS011;49839;51.798;10.954;2023-05-29T14:07:43;6.47;;;1.85;;
63693;SDS011;49839;51.798;10.954;2023-05-29T14:10:10;8.70;;;2.20;;
63693;SDS011;49839;51.798;10.954;2023-05-29T14:12:38;5.95;;;2.28;;
63693;SDS011;49839;51.798;10.954;2023-05-29T14:15:06;6.72;;;2.05;;
63693;SDS011;49839;51.798;10.954;2023-05-29T14:17:35;8.63;;;2.65;;
63693;SDS011;49839;51.798;10.954;2023-05-29T14:20:05;5.63;;;1.95;;
63693;SDS011;49839;51.798;10.954;2023-05-29T14:22:34;7.88;;;1.92;;
63693;SDS011;49839;51.798;10.954;2023-05-29T14:25:03;11.32;;;2.10;;
63693;SDS011;49839;51.798;10.954;2023-05-29T14:27:31;8.07;;;2.22;;
63693;SDS011;49839;51.798;10.954;2023-05-29T14:29:59;5.43;;;1.95;;
63693;SDS011;49839;51.798;10.954;2023-05-29T14:32:27;5.80;;;1.88;;
63693;SDS011;49839;51.798;10.954;2023-05-29T14:34:54;6.43;;;2.22;;
63693;SDS011;49839;51.798;10.954;2023-05-29T14:37:27;5.90;;;1.98;;
63693;SDS011;49839;51.798;10.954;2023-05-29T14:39:58;5.45;;;2.17;;
63693;SDS011;49839;51.798;10.954;2023-05-29T14:42:25;5.78;;;1.98;;
63693;SDS011;49839;51.798;10.954;2023-05-29T14:44:57;6.78;;;2.35;;
63693;SDS011;49839;51.798;10.954;2023-05-29T14:47:25;6.53;;;2.25;;
63693;SDS011;49839;51.798;10.954;2023-05-29T14:52:22;7.13;;;2.55;;
63693;SDS011;49839;51.798;10.954;2023-05-29T14:54:51;5.80;;;2.10;;
63693;SDS011;49839;51.798;10.954;2023-05-29T14:57:19;7.40;;;2.03;;
63693;SDS011;49839;51.798;10.954;2023-05-29T14:59:49;6.20;;;2.05;;
63693;SDS011;49839;51.798;10.954;2023-05-29T15:02:17;5.00;;;2.10;;
63693;SDS011;49839;51.798;10.954;2023-05-29T15:04:44;6.10;;;2.15;;
63693;SDS011;49839;51.798;10.954;2023-05-29T15:07:12;5.53;;;2.03;;
63693;SDS011;49839;51.798;10.954;2023-05-29T15:09:40;6.38;;;2.30;;
63693;SDS011;49839;51.798;10.954;2023-05-29T15:12:10;10.82;;;2.50;;
63693;SDS011;49839;51.798;10.954;2023-05-29T15:14:37;6.70;;;2.15;;
63693;SDS011;49839;51.798;10.954;2023-05-29T15:17:05;6.40;;;2.13;;
63693;SDS011;49839;51.798;10.954;2023-05-29T15:19:33;7.85;;;2.30;;
63693;SDS011;49839;51.798;10.954;2023-05-29T15:22:00;8.48;;;2.80;;
63693;SDS011;49839;51.798;10.954;2023-05-29T15:24:28;7.88;;;2.00;;
63693;SDS011;49839;51.798;10.954;2023-05-29T15:26:58;4.40;;;1.98;;
63693;SDS011;49839;51.798;10.954;2023-05-29T15:29:31;6.25;;;1.90;;